Time;durP1;ratioP1;P1;durP2;ratioP2;P2;SDS_P1;SDS_P2;PMS_P1;PMS_P2;Temp;Humidity;BMP_temperature;BMP_pressure;BME280_temperature;BME280_humidity;BME280_pressure;Samples;Min_cycle;Max_cycle;Signal;HPM_P1;HPM_P2
2022/02/01 00:02:04;;;;;;;;;;;3.60;99.10;;;;;;5042477;28;19940;-66
2022/02/01 00:07:18;;;;;;;;;;;3.60;99.10;;;;;;5042309;28;20028;-66
2022/02/01 00:15:24;;;;;;;;;;;3.60;99.10;;;;;;5062031;28;20294;-69
2022/02/01 00:17:58;;;;;;;;;;;3.50;97.70;;;;;;5049186;28;20226;-70
2022/02/01 00:36:58;;;;;;;;;;;3.10;98.00;;;;;;5062067;28;19915;-70
2022/02/01 00:39:18;;;;;;;;;;;3.00;98.20;;;;;;5061856;28;19976;-70
2022/02/01 00:41:51;;;;;;;;;;;3.00;98.40;;;;;;5061926;28;19909;-70
2022/02/01 00:44:17;;;;;;;;;;;3.00;98.40;;;;;;5045596;28;19916;-70
2022/02/01 00:46:43;;;;;;;;;;;3.00;98.70;;;;;;5056364;28;19909;-70
2022/02/01 00:49:09;;;;;;;;;;;2.90;99.00;;;;;;5024606;28;20079;-70
2022/02/01 00:51:34;;;;;;;;;;;3.00;99.10;;;;;;5042780;28;19909;-70
2022/02/01 00:54:00;;;;;;;;;;;2.90;99.10;;;;;;5045778;28;19909;-70
2022/02/01 00:56:26;;;;;;;;;;;2.90;99.20;;;;;;5028123;28;20208;-70
2022/02/01 00:58:52;;;;;;;;;;;2.90;99.40;;;;;;5045477;28;19913;-70
2022/02/01 01:01:17;;;;;;;;;;;2.90;99.40;;;;;;5045353;28;19909;-70
2022/02/01 01:03:46;;;;;;;;;;;2.80;99.50;;;;;;5045817;28;19932;-70
2022/02/01 01:06:12;;;;;;;;;;;2.80;99.60;;;;;;5045355;28;20270;-69
2022/02/01 01:08:37;;;;;;;;;;;2.80;99.40;;;;;;5045519;28;19921;-70
2022/02/01 01:11:04;;;;;;;;;;;2.80;98.80;;;;;;5045153;28;19976;-70
2022/02/01 01:16:25;;;;;;;;;;;2.80;99.00;;;;;;5045460;28;20108;-70
2022/02/01 01:43:45;;;;;;;;;;;2.60;97.20;;;;;;5044929;28;19967;-70
2022/02/01 01:54:19;;;;;;;;;;;2.50;97.20;;;;;;5029949;28;19959;-71
2022/02/01 01:56:45;;;;;;;;;;;2.40;97.10;;;;;;5044657;28;19909;-71
2022/02/01 01:59:11;;;;;;;;;;;2.40;97.20;;;;;;5044432;28;19909;-71
2022/02/01 02:01:37;;;;;;;;;;;2.40;97.10;;;;;;5026684;28;19909;-70
2022/02/01 02:04:03;;;;;;;;;;;2.40;97.20;;;;;;5044415;28;19909;-70
2022/02/01 02:06:32;;;;;;;;;;;2.40;96.70;;;;;;5026821;28;19977;-71
2022/02/01 02:08:59;;;;;;;;;;;2.30;96.60;;;;;;5044322;28;19917;-71
2022/02/01 02:16:43;;;;;;;;;;;2.30;96.60;;;;;;5015765;28;19917;-71
2022/02/01 02:19:09;;;;;;;;;;;2.30;96.70;;;;;;5026855;28;20007;-70
2022/02/01 02:21:35;;;;;;;;;;;2.30;96.80;;;;;;5043644;28;19913;-70
2022/02/01 02:24:00;;;;;;;;;;;2.30;97.00;;;;;;5026554;28;19909;-71
2022/02/01 02:26:26;;;;;;;;;;;2.30;97.00;;;;;;5044060;28;19917;-71
2022/02/01 02:28:52;;;;;;;;;;;2.30;97.00;;;;;;5026236;28;19927;-70
2022/02/01 02:31:20;;;;;;;;;;;2.30;97.00;;;;;;5043786;28;19955;-71
2022/02/01 02:33:46;;;;;;;;;;;2.40;97.10;;;;;;5026140;28;19931;-71
2022/02/01 02:36:20;;;;;;;;;;;2.30;97.00;;;;;;5043838;28;19940;-71
2022/02/01 02:46:36;;;;;;;;;;;2.40;97.20;;;;;;5028518;28;19924;-71
2022/02/01 02:49:05;;;;;;;;;;;2.40;96.90;;;;;;5025746;28;19917;-71
2022/02/01 02:51:31;;;;;;;;;;;2.40;96.50;;;;;;5009551;28;19909;-70
2022/02/01 02:53:57;;;;;;;;;;;2.40;96.40;;;;;;5043536;28;19909;-69
2022/02/01 02:56:22;;;;;;;;;;;2.40;96.60;;;;;;5025998;28;20216;-70
2022/02/01 02:58:51;;;;;;;;;;;2.40;96.40;;;;;;5043370;28;19948;-70
2022/02/01 03:01:20;;;;;;;;;;;2.30;96.60;;;;;;5025571;28;19956;-70
2022/02/01 03:03:46;;;;;;;;;;;2.30;96.60;;;;;;5043261;28;20215;-70
2022/02/01 03:06:12;;;;;;;;;;;2.30;96.50;;;;;;5025905;28;19909;-70
2022/02/01 03:08:37;;;;;;;;;;;2.30;96.60;;;;;;5043357;28;19920;-70
2022/02/01 03:11:10;;;;;;;;;;;2.30;96.60;;;;;;5025531;28;19931;-70
2022/02/01 03:13:37;;;;;;;;;;;2.20;96.70;;;;;;5043107;28;19909;-71
2022/02/01 03:16:54;;;;;;;;;;;2.20;97.00;;;;;;5043015;28;19948;-70
2022/02/01 03:21:36;;;;;;;;;;;2.20;96.90;;;;;;5091418;22;19928;-71
2022/02/01 03:24:03;;;;;;;;;;;2.20;96.80;;;;;;5063971;28;20199;-71
2022/02/01 03:26:28;;;;;;;;;;;2.20;96.70;;;;;;5063916;28;19931;-71
2022/02/01 03:28:54;;;;;;;;;;;2.30;96.80;;;;;;5057738;28;20111;-71
2022/02/01 03:31:20;;;;;;;;;;;2.30;96.30;;;;;;5029684;28;19920;-71
2022/02/01 03:33:46;;;;;;;;;;;2.30;96.70;;;;;;5024090;28;19916;-71
2022/02/01 03:36:11;;;;;;;;;;;2.30;95.40;;;;;;5023909;28;19909;-71
2022/02/01 03:38:37;;;;;;;;;;;2.30;95.00;;;;;;5041730;28;19956;-71
2022/02/01 03:41:03;;;;;;;;;;;2.30;95.30;;;;;;5041350;28;20097;-71
2022/02/01 03:43:29;;;;;;;;;;;2.30;94.90;;;;;;5024027;28;20085;-71
2022/02/01 03:45:55;;;;;;;;;;;2.20;94.90;;;;;;5023914;28;20182;-71
2022/02/01 03:48:20;;;;;;;;;;;2.20;95.10;;;;;;5041231;28;20127;-71
2022/02/01 03:50:46;;;;;;;;;;;2.20;95.30;;;;;;5041092;28;19913;-71
2022/02/01 03:53:13;;;;;;;;;;;2.20;95.00;;;;;;5023927;28;19920;-71
2022/02/01 03:55:38;;;;;;;;;;;2.20;95.30;;;;;;5024184;28;19925;-71
2022/02/01 03:58:04;;;;;;;;;;;2.10;95.10;;;;;;5007759;28;20067;-71
2022/02/01 04:00:30;;;;;;;;;;;2.10;95.40;;;;;;5024121;28;19909;-71
2022/02/01 04:02:57;;;;;;;;;;;2.10;95.60;;;;;;5024579;28;19991;-71
2022/02/01 04:05:23;;;;;;;;;;;2.10;95.80;;;;;;5042173;28;19933;-71
2022/02/01 04:07:48;;;;;;;;;;;2.10;95.50;;;;;;5041715;28;19932;-72
2022/02/01 04:10:15;;;;;;;;;;;2.10;95.50;;;;;;5023644;28;19909;-70
2022/02/01 04:12:41;;;;;;;;;;;2.10;95.80;;;;;;5041039;28;19909;-70
2022/02/01 04:15:08;;;;;;;;;;;2.10;95.70;;;;;;5023708;28;19947;-71
2022/02/01 04:17:34;;;;;;;;;;;2.10;95.50;;;;;;5041089;28;20192;-71
2022/02/01 04:20:00;;;;;;;;;;;2.10;95.70;;;;;;5023370;28;20208;-71
2022/02/01 04:22:26;;;;;;;;;;;2.00;95.80;;;;;;5006761;28;19909;-71
2022/02/01 04:24:51;;;;;;;;;;;2.10;96.00;;;;;;5041096;28;19909;-71
2022/02/01 04:27:30;;;;;;;;;;;2.00;96.20;;;;;;5043254;28;19913;-71
2022/02/01 04:30:07;;;;;;;;;;;2.10;96.50;;;;;;5012552;28;19935;-71
2022/02/01 04:32:44;;;;;;;;;;;2.10;96.70;;;;;;5044551;28;20012;-71
2022/02/01 04:35:11;;;;;;;;;;;2.10;96.90;;;;;;5026925;28;19936;-71
2022/02/01 04:37:37;;;;;;;;;;;2.10;97.30;;;;;;5027048;28;19909;-71
2022/02/01 04:40:04;;;;;;;;;;;2.10;97.60;;;;;;5044540;28;19932;-71
2022/02/01 04:42:34;;;;;;;;;;;2.10;97.80;;;;;;5010278;28;20068;-71
2022/02/01 04:45:00;;;;;;;;;;;2.10;97.90;;;;;;5044613;28;19916;-71
2022/02/01 04:47:31;;;;;;;;;;;2.00;98.10;;;;;;5043158;28;19913;-71
2022/02/01 04:49:58;;;;;;;;;;;2.00;98.20;;;;;;5044508;28;20163;-71
2022/02/01 04:52:24;;;;;;;;;;;2.00;98.30;;;;;;5026217;28;19909;-71
2022/02/01 04:54:50;;;;;;;;;;;2.00;98.30;;;;;;5044493;28;19916;-71
2022/02/01 04:57:15;;;;;;;;;;;2.00;98.40;;;;;;5043267;28;19994;-71
2022/02/01 04:59:41;;;;;;;;;;;2.00;98.50;;;;;;5042986;28;20115;-71
2022/02/01 05:02:07;;;;;;;;;;;2.00;98.60;;;;;;5026571;28;19984;-71
2022/02/01 05:04:32;;;;;;;;;;;2.10;98.20;;;;;;5044292;28;19947;-71
2022/02/01 05:06:58;;;;;;;;;;;2.00;98.00;;;;;;5043745;28;19915;-71
2022/02/01 05:09:26;;;;;;;;;;;2.10;98.00;;;;;;5043991;28;19921;-71
2022/02/01 05:11:53;;;;;;;;;;;2.10;98.00;;;;;;5026364;28;19960;-70
2022/02/01 05:14:24;;;;;;;;;;;2.10;98.10;;;;;;5026586;28;19923;-71
2022/02/01 05:19:32;;;;;;;;;;;2.10;98.20;;;;;;5042679;28;19913;-71
2022/02/01 05:22:01;;;;;;;;;;;2.10;98.30;;;;;;5027506;28;20073;-70
2022/02/01 05:24:27;;;;;;;;;;;2.10;98.30;;;;;;5043807;28;19909;-70
2022/02/01 05:26:57;;;;;;;;;;;2.00;98.60;;;;;;5043665;28;19909;-72
2022/02/01 05:29:23;;;;;;;;;;;1.90;98.80;;;;;;5042534;28;20203;-70
2022/02/01 05:31:51;;;;;;;;;;;2.00;99.00;;;;;;5025746;28;19909;-73
2022/02/01 05:34:20;;;;;;;;;;;2.00;99.00;;;;;;5010101;28;19909;-72
2022/02/01 05:36:46;;;;;;;;;;;1.90;99.20;;;;;;5026124;28;19927;-72
2022/02/01 05:39:17;;;;;;;;;;;1.90;99.40;;;;;;5043200;28;19976;-72
2022/02/01 05:41:43;;;;;;;;;;;2.00;99.50;;;;;;5009082;28;19909;-72
2022/02/01 05:44:08;;;;;;;;;;;2.10;99.30;;;;;;5025794;28;19913;-72
2022/02/01 05:46:35;;;;;;;;;;;2.00;99.40;;;;;;5043330;28;19927;-72
2022/02/01 05:49:06;;;;;;;;;;;2.00;99.40;;;;;;5025302;28;19920;-72
2022/02/01 05:51:33;;;;;;;;;;;2.00;99.50;;;;;;5025167;28;20005;-72
2022/02/01 05:53:58;;;;;;;;;;;2.00;99.60;;;;;;5025827;28;19909;-72
2022/02/01 05:56:25;;;;;;;;;;;2.10;99.50;;;;;;5025829;28;19955;-73
2022/02/01 05:58:50;;;;;;;;;;;2.10;99.70;;;;;;5043352;28;19910;-74
2022/02/01 06:01:18;;;;;;;;;;;2.00;99.70;;;;;;5025421;28;20235;-72
2022/02/01 06:03:44;;;;;;;;;;;2.10;99.70;;;;;;5026070;28;19909;-73
2022/02/01 06:06:10;;;;;;;;;;;2.10;99.70;;;;;;5025474;28;20000;-73
2022/02/01 06:08:36;;;;;;;;;;;2.00;99.60;;;;;;5041909;28;19919;-73
2022/02/01 06:11:02;;;;;;;;;;;2.00;99.60;;;;;;5042844;28;19967;-73
2022/02/01 06:13:27;;;;;;;;;;;2.10;99.60;;;;;;5025523;28;19916;-73
2022/02/01 06:15:53;;;;;;;;;;;2.10;99.60;;;;;;5042475;28;19909;-73
2022/02/01 06:18:19;;;;;;;;;;;2.20;99.40;;;;;;5034445;28;19972;-73
2022/02/01 06:20:45;;;;;;;;;;;2.20;99.40;;;;;;5040603;28;20097;-73
2022/02/01 06:23:14;;;;;;;;;;;2.20;99.30;;;;;;5041737;28;19984;-73
2022/02/01 06:25:50;;;;;;;;;;;2.20;99.50;;;;;;5041704;28;19909;-74
2022/02/01 06:28:17;;;;;;;;;;;2.20;99.20;;;;;;5026730;28;20131;-73
2022/02/01 06:30:43;;;;;;;;;;;2.30;99.30;;;;;;5024914;28;19983;-73
2022/02/01 06:33:09;;;;;;;;;;;2.30;99.00;;;;;;5041688;28;19932;-73
2022/02/01 06:35:35;;;;;;;;;;;2.30;99.10;;;;;;5041844;28;20015;-73
2022/02/01 06:38:01;;;;;;;;;;;2.30;98.90;;;;;;5042578;28;20141;-72
2022/02/01 06:40:28;;;;;;;;;;;2.20;98.90;;;;;;5042433;28;19909;-73
2022/02/01 06:42:54;;;;;;;;;;;2.20;98.80;;;;;;5041785;28;19909;-72
2022/02/01 06:45:19;;;;;;;;;;;2.20;99.00;;;;;;5025817;28;19916;-72
2022/02/01 06:47:46;;;;;;;;;;;2.20;99.00;;;;;;5043680;28;20119;-72
2022/02/01 06:50:13;;;;;;;;;;;2.30;98.90;;;;;;5062332;28;19909;-71
2022/02/01 06:52:38;;;;;;;;;;;2.30;98.90;;;;;;5002991;28;19909;-73
2022/02/01 06:55:04;;;;;;;;;;;2.30;99.00;;;;;;5037958;28;19932;-69
2022/02/01 06:57:37;;;;;;;;;;;2.30;98.50;;;;;;5042922;28;19980;-71
2022/02/01 07:00:07;;;;;;;;;;;2.30;98.40;;;;;;5024064;28;20115;-75
2022/02/01 07:02:33;;;;;;;;;;;2.30;98.50;;;;;;5024076;28;20211;-75
2022/02/01 07:04:59;;;;;;;;;;;2.30;98.10;;;;;;5023552;28;19909;-71
2022/02/01 07:07:25;;;;;;;;;;;2.30;98.20;;;;;;5043069;28;20089;-71
2022/02/01 07:09:51;;;;;;;;;;;2.40;97.90;;;;;;5042823;28;19917;-68
2022/02/01 07:12:16;;;;;;;;;;;2.40;97.40;;;;;;5042905;28;19983;-74
2022/02/01 07:14:42;;;;;;;;;;;2.40;97.30;;;;;;5041199;28;19935;-65
2022/02/01 07:17:08;;;;;;;;;;;2.40;96.60;;;;;;5042557;28;19955;-67
2022/02/01 07:19:33;;;;;;;;;;;2.40;96.80;;;;;;5042751;28;19909;-68
2022/02/01 07:21:59;;;;;;;;;;;2.40;96.00;;;;;;5041318;28;20250;-67
2022/02/01 07:24:30;;;;;;;;;;;2.40;96.10;;;;;;5042324;28;19917;-68
2022/02/01 07:27:09;;;;;;;;;;;2.40;96.10;;;;;;5042599;28;19913;-69
2022/02/01 07:29:34;;;;;;;;;;;2.40;96.10;;;;;;5049420;28;19912;-68
2022/02/01 07:32:00;;;;;;;;;;;2.40;95.60;;;;;;5061873;28;19919;-68
2022/02/01 07:34:26;;;;;;;;;;;2.40;95.40;;;;;;5061799;28;19972;-68
2022/02/01 07:36:51;;;;;;;;;;;2.40;94.70;;;;;;5062223;28;19940;-68
2022/02/01 07:39:17;;;;;;;;;;;2.40;95.00;;;;;;5062409;28;19908;-69
2022/02/01 07:41:43;;;;;;;;;;;2.40;95.00;;;;;;5061914;28;20146;-69
2022/02/01 07:44:09;;;;;;;;;;;2.40;94.70;;;;;;5043796;28;19910;-69
2022/02/01 07:46:35;;;;;;;;;;;2.40;95.20;;;;;;5022502;28;20219;-69
2022/02/01 07:49:01;;;;;;;;;;;2.40;94.80;;;;;;5021814;28;19913;-69
2022/02/01 07:51:27;;;;;;;;;;;2.40;94.60;;;;;;5024163;28;20216;-69
2022/02/01 07:53:53;;;;;;;;;;;2.40;94.20;;;;;;5041619;28;19917;-69
2022/02/01 07:56:18;;;;;;;;;;;2.40;94.40;;;;;;5042280;28;19916;-69
2022/02/01 07:58:44;;;;;;;;;;;2.40;93.80;;;;;;5041716;28;19967;-69
2022/02/01 08:01:10;;;;;;;;;;;2.40;93.80;;;;;;5043702;28;19980;-69
2022/02/01 08:03:35;;;;;;;;;;;2.40;93.60;;;;;;5045596;28;20250;-69
2022/02/01 08:06:01;;;;;;;;;;;2.50;93.00;;;;;;5045920;28;19917;-69
2022/02/01 08:08:27;;;;;;;;;;;2.50;93.50;;;;;;5045830;28;19959;-69
2022/02/01 08:10:55;;;;;;;;;;;2.50;93.60;;;;;;5045449;28;19909;-69
2022/02/01 08:21:29;;;;;;;;;;;2.40;93.50;;;;;;5024772;28;20180;-69
2022/02/01 08:23:55;;;;;;;;;;;2.30;94.00;;;;;;5044367;28;19916;-69
2022/02/01 08:26:21;;;;;;;;;;;2.40;93.60;;;;;;5028897;28;20227;-69
2022/02/01 08:28:47;;;;;;;;;;;2.40;93.70;;;;;;5045750;28;19920;-69
2022/02/01 08:31:15;;;;;;;;;;;2.40;93.70;;;;;;5028346;28;19909;-69
2022/02/01 08:33:42;;;;;;;;;;;2.40;93.50;;;;;;5045524;28;19909;-69
2022/02/01 08:36:07;;;;;;;;;;;2.40;93.90;;;;;;5028666;28;19917;-69
2022/02/01 08:38:33;;;;;;;;;;;2.50;93.80;;;;;;5028155;28;19909;-69
2022/02/01 08:41:00;;;;;;;;;;;2.40;94.00;;;;;;5045705;28;19916;-69
2022/02/01 08:43:27;;;;;;;;;;;2.40;94.10;;;;;;5045618;28;19909;-69
2022/02/01 08:45:52;;;;;;;;;;;2.40;94.40;;;;;;5045767;28;19909;-69
2022/02/01 08:48:18;;;;;;;;;;;2.50;94.50;;;;;;5044772;28;19951;-69
2022/02/01 08:50:44;;;;;;;;;;;2.50;94.30;;;;;;5063586;28;19945;-69
2022/02/01 08:53:46;;;;;;;;;;;2.50;94.20;;;;;;5050099;28;20031;-69
2022/02/01 08:56:03;;;;;;;;;;;2.50;94.40;;;;;;5045183;28;20285;-69
2022/02/01 08:58:29;;;;;;;;;;;2.60;94.30;;;;;;5045448;28;19963;-69
2022/02/01 09:00:55;;;;;;;;;;;2.50;94.40;;;;;;5027235;28;19935;-69
2022/02/01 09:03:21;;;;;;;;;;;2.60;94.30;;;;;;5045214;28;20216;-68
2022/02/01 09:05:49;;;;;;;;;;;2.60;94.30;;;;;;5045296;28;20119;-69
2022/02/01 09:08:14;;;;;;;;;;;2.60;94.10;;;;;;5045361;28;19913;-70
2022/02/01 09:10:41;;;;;;;;;;;2.50;94.30;;;;;;5043934;28;19963;-69
2022/02/01 09:13:07;;;;;;;;;;;2.60;94.30;;;;;;5044512;28;19910;-69
2022/02/01 09:15:33;;;;;;;;;;;2.70;94.00;;;;;;5044394;28;19916;-69
2022/02/01 09:18:00;;;;;;;;;;;2.70;94.20;;;;;;5045018;28;19932;-69
2022/02/01 09:20:27;;;;;;;;;;;2.70;94.10;;;;;;5069349;22;19917;-68
2022/02/01 09:22:53;;;;;;;;;;;2.80;94.20;;;;;;5112210;28;19946;-66
2022/02/01 09:25:19;;;;;;;;;;;2.80;93.80;;;;;;5104344;28;20179;-66
2022/02/01 09:27:47;;;;;;;;;;;2.80;93.90;;;;;;5104076;28;19912;-66
2022/02/01 09:30:14;;;;;;;;;;;2.80;94.00;;;;;;5103055;28;19908;-66
2022/02/01 09:32:41;;;;;;;;;;;2.80;94.10;;;;;;5103712;28;19908;-66
2022/02/01 09:35:07;;;;;;;;;;;2.70;94.20;;;;;;5104069;28;19908;-66
2022/02/01 09:37:33;;;;;;;;;;;2.80;94.50;;;;;;5102651;28;19908;-66
2022/02/01 09:39:58;;;;;;;;;;;2.80;94.20;;;;;;5103917;28;19908;-66
2022/02/01 09:42:27;;;;;;;;;;;2.80;94.20;;;;;;5102491;28;19931;-66
2022/02/01 09:44:56;;;;;;;;;;;2.80;94.00;;;;;;5103924;28;19908;-66
2022/02/01 09:47:33;;;;;;;;;;;2.80;94.30;;;;;;5102471;28;19911;-66
2022/02/01 09:49:58;;;;;;;;;;;2.80;94.10;;;;;;5089675;28;19916;-67
2022/02/01 09:52:25;;;;;;;;;;;2.90;94.00;;;;;;5083276;28;19967;-67
2022/02/01 09:54:52;;;;;;;;;;;2.90;94.10;;;;;;5082576;28;19916;-67
2022/02/01 09:57:22;;;;;;;;;;;3.00;93.60;;;;;;5082842;28;19947;-67
2022/02/01 09:59:59;;;;;;;;;;;3.00;93.10;;;;;;5083361;28;20326;-66
2022/02/01 10:02:39;;;;;;;;;;;3.00;93.80;;;;;;5065117;28;20137;-66
2022/02/01 10:05:10;;;;;;;;;;;3.00;93.40;;;;;;5082954;28;20107;-67
2022/02/01 10:07:53;;;;;;;;;;;3.10;93.10;;;;;;5082180;28;19919;-66
2022/02/01 10:10:24;;;;;;;;;;;3.10;92.80;;;;;;5081892;28;19958;-66
2022/02/01 10:12:56;;;;;;;;;;;3.10;92.80;;;;;;5081758;28;20008;-67
2022/02/01 10:15:26;;;;;;;;;;;3.20;92.30;;;;;;5083415;28;19909;-66
2022/02/01 10:17:58;;;;;;;;;;;3.20;92.10;;;;;;5083438;28;20234;-66
2022/02/01 10:20:42;;;;;;;;;;;3.30;92.40;;;;;;5082592;28;20215;-66
2022/02/01 10:23:18;;;;;;;;;;;3.30;92.50;;;;;;5082934;28;20215;-67
2022/02/01 10:25:57;;;;;;;;;;;3.30;91.90;;;;;;5082852;28;19909;-66
2022/02/01 10:28:24;;;;;;;;;;;3.40;91.50;;;;;;5081644;28;19913;-67
2022/02/01 10:30:50;;;;;;;;;;;3.40;91.70;;;;;;5082320;28;19915;-66
2022/02/01 10:36:13;;;;;;;;;;;3.50;91.10;;;;;;5081363;28;20202;-66
2022/02/01 10:38:39;;;;;;;;;;;3.50;91.50;;;;;;5082357;28;19914;-66
2022/02/01 10:41:05;;;;;;;;;;;3.50;90.80;;;;;;5082173;28;20180;-67
2022/02/01 10:43:32;;;;;;;;;;;3.50;90.70;;;;;;5081335;28;19971;-66
2022/02/01 10:46:09;;;;;;;;;;;3.40;90.50;;;;;;5081058;28;19909;-66
2022/02/01 10:48:36;;;;;;;;;;;3.40;90.70;;;;;;5080563;28;20277;-66
2022/02/01 10:51:09;;;;;;;;;;;3.40;91.00;;;;;;5080490;28;19950;-66
2022/02/01 10:53:36;;;;;;;;;;;3.40;91.00;;;;;;5064496;28;19947;-67
2022/02/01 10:56:04;;;;;;;;;;;3.50;91.10;;;;;;5082276;28;19916;-66
2022/02/01 10:58:30;;;;;;;;;;;3.50;91.00;;;;;;5081855;28;20088;-67
2022/02/01 11:00:56;;;;;;;;;;;3.60;91.00;;;;;;5081605;28;19916;-67
2022/02/01 11:03:22;;;;;;;;;;;3.60;90.50;;;;;;5080747;28;19909;-67
2022/02/01 11:05:49;;;;;;;;;;;3.60;90.40;;;;;;5063821;28;19909;-66
2022/02/01 11:08:16;;;;;;;;;;;3.60;90.80;;;;;;5080863;28;19955;-67
2022/02/01 11:10:44;;;;;;;;;;;3.70;90.70;;;;;;5080284;28;19915;-67
2022/02/01 11:13:11;;;;;;;;;;;3.70;90.60;;;;;;5080786;28;19961;-66
2022/02/01 11:15:36;;;;;;;;;;;3.80;90.70;;;;;;5080449;28;19909;-67
2022/02/01 11:18:28;;;;;;;;;;;3.70;90.80;;;;;;5081770;28;20107;-67
2022/02/01 11:21:13;;;;;;;;;;;3.70;90.90;;;;;;5077943;28;19912;-67
2022/02/01 11:23:53;;;;;;;;;;;3.70;91.10;;;;;;5081965;28;20081;-67
2022/02/01 11:26:30;;;;;;;;;;;3.70;91.30;;;;;;5080721;28;19909;-67
2022/02/01 11:31:29;;;;;;;;;;;3.80;91.20;;;;;;5064201;28;19912;-67
2022/02/01 11:33:55;;;;;;;;;;;3.90;91.10;;;;;;5081675;28;19908;-67
2022/02/01 11:36:21;;;;;;;;;;;3.90;90.60;;;;;;5081114;28;20218;-66
2022/02/01 11:38:58;;;;;;;;;;;3.80;90.70;;;;;;5063240;28;19923;-67
2022/02/01 11:41:35;;;;;;;;;;;3.90;90.90;;;;;;5081403;28;19931;-66
2022/02/01 11:44:07;;;;;;;;;;;4.00;91.50;;;;;;5080405;28;19909;-68
2022/02/01 11:46:33;;;;;;;;;;;4.20;90.80;;;;;;5081742;28;19908;-67
2022/02/01 11:49:01;;;;;;;;;;;4.30;90.20;;;;;;5079486;28;20114;-68
2022/02/01 11:51:28;;;;;;;;;;;4.30;90.50;;;;;;5080134;28;20208;-68
2022/02/01 11:54:00;;;;;;;;;;;4.30;90.00;;;;;;5080371;28;19953;-67
2022/02/01 11:56:33;;;;;;;;;;;4.20;88.40;;;;;;5081893;28;19958;-67
2022/02/01 11:59:06;;;;;;;;;;;4.20;89.00;;;;;;5081640;28;20239;-67
2022/02/01 12:01:34;;;;;;;;;;;4.10;90.00;;;;;;5081191;28;19908;-67
2022/02/01 12:04:01;;;;;;;;;;;4.10;90.00;;;;;;5080123;28;20226;-66
2022/02/01 12:06:46;;;;;;;;;;;3.90;88.70;;;;;;5080337;28;19931;-67
2022/02/01 12:09:19;;;;;;;;;;;3.80;90.00;;;;;;5096814;28;19995;-67
2022/02/01 12:11:45;;;;;;;;;;;3.70;90.50;;;;;;5081095;28;19915;-67
2022/02/01 12:14:11;;;;;;;;;;;3.80;90.70;;;;;;5073423;28;19913;-67
2022/02/01 12:16:37;;;;;;;;;;;3.80;90.70;;;;;;5074433;28;19940;-66
2022/02/01 12:19:06;;;;;;;;;;;3.80;90.80;;;;;;5062981;28;19909;-66
2022/02/01 12:21:45;;;;;;;;;;;3.80;90.70;;;;;;5068869;28;19913;-67
2022/02/01 12:24:11;;;;;;;;;;;3.70;91.00;;;;;;5065295;28;20003;-66
2022/02/01 12:26:38;;;;;;;;;;;3.80;91.00;;;;;;5043331;28;19913;-66
2022/02/01 12:29:06;;;;;;;;;;;3.70;90.70;;;;;;5059920;28;19913;-66
2022/02/01 12:31:33;;;;;;;;;;;3.80;91.00;;;;;;5065863;28;19908;-66
2022/02/01 12:34:01;;;;;;;;;;;3.70;90.60;;;;;;5080980;28;19924;-66
2022/02/01 12:36:32;;;;;;;;;;;3.70;90.60;;;;;;5081082;28;19928;-66
2022/02/01 12:39:07;;;;;;;;;;;3.70;90.90;;;;;;5080039;28;20168;-66
2022/02/01 12:41:42;;;;;;;;;;;3.70;91.20;;;;;;5080848;28;20129;-67
2022/02/01 12:46:56;;;;;;;;;;;3.70;91.50;;;;;;5064382;28;19976;-66
2022/02/01 12:49:42;;;;;;;;;;;3.70;91.60;;;;;;5085115;28;19912;-66
2022/02/01 12:52:21;;;;;;;;;;;3.70;91.90;;;;;;5068209;28;19912;-67
2022/02/01 12:54:47;;;;;;;;;;;3.60;92.40;;;;;;5085737;28;19936;-67
2022/02/01 12:57:17;;;;;;;;;;;3.60;92.90;;;;;;5085708;28;19916;-68
2022/02/01 12:59:47;;;;;;;;;;;3.50;93.20;;;;;;5085641;28;20190;-66
2022/02/01 13:02:17;;;;;;;;;;;3.50;93.50;;;;;;5085383;28;19916;-66
2022/02/01 13:04:43;;;;;;;;;;;3.40;93.50;;;;;;5085379;28;19918;-66
2022/02/01 13:07:27;;;;;;;;;;;3.50;93.40;;;;;;5085615;28;19908;-66
2022/02/01 13:18:13;;;;;;;;;;;3.30;94.40;;;;;;5064101;28;19980;-66
2022/02/01 13:20:42;;;;;;;;;;;3.30;94.60;;;;;;5079798;28;19932;-66
2022/02/01 13:23:08;;;;;;;;;;;3.30;94.40;;;;;;5085126;28;20207;-66
2022/02/01 13:25:38;;;;;;;;;;;3.30;94.50;;;;;;5085235;28;19946;-66
2022/02/01 13:28:06;;;;;;;;;;;3.30;95.00;;;;;;5085140;28;20127;-67
2022/02/01 13:30:34;;;;;;;;;;;3.30;94.70;;;;;;5084971;28;19943;-66
2022/02/01 13:33:05;;;;;;;;;;;3.20;94.80;;;;;;5085139;28;20149;-66
2022/02/01 13:35:31;;;;;;;;;;;3.20;94.80;;;;;;5078050;28;19976;-68
2022/02/01 13:37:56;;;;;;;;;;;3.20;94.90;;;;;;5083833;28;19908;-69
2022/02/01 13:40:27;;;;;;;;;;;3.20;95.30;;;;;;5083637;28;19928;-69
2022/02/01 13:42:53;;;;;;;;;;;3.10;95.70;;;;;;5067332;28;19947;-67
2022/02/01 13:45:18;;;;;;;;;;;3.10;95.80;;;;;;5084652;28;19916;-67
2022/02/01 13:47:45;;;;;;;;;;;3.10;96.10;;;;;;5083180;28;19958;-68
2022/02/01 13:50:16;;;;;;;;;;;3.00;96.20;;;;;;5082872;28;20202;-67
2022/02/01 13:52:42;;;;;;;;;;;3.10;96.40;;;;;;5084316;28;19908;-67
2022/02/01 13:55:19;;;;;;;;;;;3.10;96.40;;;;;;5083462;28;19954;-67
2022/02/01 13:57:44;;;;;;;;;;;3.10;96.60;;;;;;5083017;28;19920;-67
2022/02/01 14:00:12;;;;;;;;;;;3.10;96.30;;;;;;5084512;28;19909;-67
2022/02/01 14:02:44;;;;;;;;;;;3.00;96.50;;;;;;5084278;28;19979;-67
2022/02/01 14:05:22;;;;;;;;;;;3.00;96.40;;;;;;5064780;28;20179;-67
2022/02/01 14:29:04;;;;;;;;;;;2.80;97.10;;;;;;5083620;28;19919;-67
2022/02/01 14:34:18;;;;;;;;;;;2.70;97.30;;;;;;5083471;28;19947;-67
2022/02/01 14:36:46;;;;;;;;;;;2.70;97.80;;;;;;5065108;28;19909;-67
2022/02/01 14:44:47;;;;;;;;;;;2.60;98.20;;;;;;5083032;28;19917;-67
2022/02/01 14:47:18;;;;;;;;;;;2.60;98.20;;;;;;5083291;28;19909;-67
2022/02/01 14:49:44;;;;;;;;;;;2.60;98.20;;;;;;5081393;28;19935;-67
2022/02/01 14:52:10;;;;;;;;;;;2.60;98.60;;;;;;5065377;28;19915;-67
2022/02/01 14:54:59;;;;;;;;;;;2.60;98.40;;;;;;5083306;28;19908;-67
2022/02/01 15:13:19;;;;;;;;;;;2.40;99.20;;;;;;5083183;28;19923;-68
2022/02/01 15:15:45;;;;;;;;;;;2.30;99.60;;;;;;5082831;28;19908;-68
2022/02/01 15:18:10;;;;;;;;;;;2.30;99.60;;;;;;5082853;28;19908;-68
2022/02/01 15:20:36;;;;;;;;;;;2.30;99.40;;;;;;5082115;28;19912;-67
2022/02/01 15:23:02;;;;;;;;;;;2.30;99.90;;;;;;5082966;28;19908;-68
2022/02/01 15:25:28;;;;;;;;;;;2.30;99.80;;;;;;5082978;28;19916;-68
2022/02/01 15:27:54;;;;;;;;;;;2.20;99.90;;;;;;5082817;28;20199;-67
2022/02/01 15:30:21;;;;;;;;;;;2.30;99.90;;;;;;5080778;28;20363;-68
2022/02/01 15:32:50;;;;;;;;;;;2.30;99.90;;;;;;5082717;28;20164;-67
2022/02/01 15:35:17;;;;;;;;;;;2.30;99.90;;;;;;5081797;28;19908;-67
2022/02/01 15:37:49;;;;;;;;;;;2.30;99.80;;;;;;5081787;28;19916;-67
2022/02/01 15:57:13;;;;;;;;;;;2.20;99.90;;;;;;5082736;28;19915;-67
2022/02/01 15:59:41;;;;;;;;;;;2.20;99.90;;;;;;5083302;28;19954;-72
2022/02/01 16:02:14;;;;;;;;;;;2.20;99.90;;;;;;5082884;28;19908;-67
2022/02/01 16:04:42;;;;;;;;;;;2.10;99.90;;;;;;5082710;28;20213;-67
2022/02/01 16:07:14;;;;;;;;;;;2.20;99.90;;;;;;5080546;28;19982;-67
2022/02/01 16:12:07;;;;;;;;;;;2.20;99.90;;;;;;5082176;28;19916;-66
2022/02/01 16:14:33;;;;;;;;;;;2.20;99.90;;;;;;5082416;28;19908;-67
2022/02/01 16:16:58;;;;;;;;;;;2.20;99.90;;;;;;5082174;28;20221;-67
2022/02/01 16:19:24;;;;;;;;;;;2.30;99.90;;;;;;5073734;28;19913;-67
2022/02/01 16:21:50;;;;;;;;;;;2.20;99.90;;;;;;5063875;28;20088;-69
2022/02/01 16:24:16;;;;;;;;;;;2.20;99.90;;;;;;5066184;28;19976;-67
2022/02/01 16:26:44;;;;;;;;;;;2.20;99.90;;;;;;5075231;28;19975;-68
2022/02/01 16:29:11;;;;;;;;;;;2.20;99.90;;;;;;5068320;28;19948;-68
2022/02/01 16:31:37;;;;;;;;;;;2.10;99.90;;;;;;5071210;28;20100;-68
2022/02/01 16:34:03;;;;;;;;;;;2.10;99.90;;;;;;5084481;28;20069;-68
2022/02/01 16:36:29;;;;;;;;;;;2.10;99.90;;;;;;5084521;28;19923;-68
2022/02/01 16:38:55;;;;;;;;;;;2.10;99.90;;;;;;5085449;28;20282;-68
2022/02/01 16:41:22;;;;;;;;;;;2.10;99.90;;;;;;5084491;28;19909;-67
2022/02/01 16:43:48;;;;;;;;;;;2.10;99.90;;;;;;5084586;28;19961;-68
2022/02/01 16:46:14;;;;;;;;;;;2.10;99.90;;;;;;5085941;28;19908;-68
2022/02/01 16:48:40;;;;;;;;;;;2.20;99.90;;;;;;5085731;28;19913;-68
2022/02/01 16:51:06;;;;;;;;;;;2.10;99.90;;;;;;5081771;28;19913;-68
2022/02/01 16:53:45;;;;;;;;;;;2.10;99.90;;;;;;5085698;28;19908;-68
2022/02/01 16:58:43;;;;;;;;;;;2.10;99.90;;;;;;5067787;28;19908;-68
2022/02/01 17:01:08;;;;;;;;;;;2.20;99.90;;;;;;5085415;28;20110;-68
2022/02/01 17:03:34;;;;;;;;;;;2.20;99.90;;;;;;5085575;28;19908;-68
2022/02/01 17:06:00;;;;;;;;;;;2.20;99.90;;;;;;5084565;28;19967;-68
2022/02/01 17:08:28;;;;;;;;;;;2.20;99.90;;;;;;5084019;28;19913;-68
2022/02/01 17:10:57;;;;;;;;;;;2.30;99.90;;;;;;5084969;28;19915;-68
2022/02/01 17:16:17;;;;;;;;;;;2.30;99.90;;;;;;5085445;28;20253;-68
2022/02/01 17:23:53;;;;;;;;;;;2.40;99.90;;;;;;5083285;28;19943;-67
2022/02/01 17:26:19;;;;;;;;;;;2.40;99.90;;;;;;5076273;28;19931;-68
2022/02/01 17:28:45;;;;;;;;;;;2.40;99.90;;;;;;5074224;28;20208;-68
2022/02/01 17:31:10;;;;;;;;;;;2.50;99.90;;;;;;5079348;28;19919;-68
2022/02/01 17:33:37;;;;;;;;;;;2.50;99.90;;;;;;5082938;28;19936;-68
2022/02/01 17:36:03;;;;;;;;;;;2.50;99.90;;;;;;5069641;28;19922;-68